Time;durP1;ratioP1;P1;durP2;ratioP2;P2;SDS_P1;SDS_P2;PMS_P1;PMS_P2;Temp;Humidity;BMP_temperature;BMP_pressure;BME280_temperature;BME280_humidity;BME280_pressure;Samples;Min_cycle;Max_cycle;Signal;HPM_P1;HPM_P2
2023/10/24 00:01:27;;;;;;;5.90;1.48;;;8.20;99.90;;;;;;5033702;28;20108;-74
2023/10/24 00:03:53;;;;;;;5.72;1.30;;;8.20;99.90;;;;;;5033367;28;20367;-74
2023/10/24 00:06:19;;;;;;;5.68;1.80;;;8.20;99.90;;;;;;5033404;28;20029;-74
2023/10/24 00:08:44;;;;;;;6.10;1.58;;;8.20;99.90;;;;;;5033293;28;20033;-74
2023/10/24 00:11:10;;;;;;;8.75;1.88;;;8.20;99.90;;;;;;5033456;28;20029;-73
2023/10/24 00:13:36;;;;;;;4.90;1.40;;;8.20;99.90;;;;;;5033493;28;20049;-74
2023/10/24 00:16:01;;;;;;;7.22;1.40;;;8.20;99.90;;;;;;5033539;28;20022;-74
2023/10/24 00:18:27;;;;;;;5.05;1.80;;;8.20;99.90;;;;;;5033172;28;20037;-74
2023/10/24 00:20:54;;;;;;;8.05;1.63;;;8.20;99.90;;;;;;5033197;28;20367;-74
2023/10/24 00:23:20;;;;;;;6.57;2.22;;;8.20;99.90;;;;;;5033185;28;20501;-74
2023/10/24 00:25:46;;;;;;;7.30;1.75;;;8.20;99.90;;;;;;5033128;28;20042;-74
2023/10/24 00:28:11;;;;;;;5.75;1.67;;;8.20;99.90;;;;;;5032751;28;20482;-74
2023/10/24 00:30:37;;;;;;;5.93;1.27;;;8.10;99.90;;;;;;5033042;28;20029;-73
2023/10/24 00:33:03;;;;;;;5.50;1.63;;;8.10;99.90;;;;;;5031809;28;20108;-73
2023/10/24 00:35:29;;;;;;;6.13;1.58;;;8.10;99.90;;;;;;5033063;28;20112;-74
2023/10/24 00:37:55;;;;;;;6.10;1.55;;;8.00;99.90;;;;;;5033096;28;20029;-74
2023/10/24 00:40:21;;;;;;;6.40;1.83;;;7.90;99.90;;;;;;5033053;28;20033;-74
2023/10/24 00:42:47;;;;;;;4.85;1.70;;;7.80;99.90;;;;;;5033000;28;20103;-74
2023/10/24 00:45:12;;;;;;;6.95;1.35;;;7.80;99.90;;;;;;5033419;28;20418;-74
2023/10/24 00:47:39;;;;;;;7.20;1.77;;;7.70;99.90;;;;;;5033370;28;20018;-74
2023/10/24 00:50:07;;;;;;;5.05;1.70;;;7.70;99.90;;;;;;5036458;28;20378;-74
2023/10/24 00:52:34;;;;;;;6.60;1.67;;;7.70;99.90;;;;;;5036766;28;20022;-74
2023/10/24 00:55:00;;;;;;;6.82;1.63;;;7.80;99.90;;;;;;5035744;28;20040;-74
2023/10/24 00:57:26;;;;;;;6.20;1.48;;;7.80;99.90;;;;;;5036591;28;20556;-74
2023/10/24 00:59:53;;;;;;;5.40;1.77;;;7.80;99.90;;;;;;5036544;28;20061;-74
2023/10/24 01:02:19;;;;;;;6.65;1.75;;;7.70;99.90;;;;;;5036638;28;20044;-74
2023/10/24 01:04:47;;;;;;;7.70;1.90;;;7.70;99.90;;;;;;5036502;28;20529;-74
2023/10/24 01:07:12;;;;;;;5.45;1.55;;;7.60;99.90;;;;;;5035223;28;20052;-74
2023/10/24 01:09:38;;;;;;;7.38;2.05;;;7.50;99.90;;;;;;5036367;28;20045;-74
2023/10/24 01:12:04;;;;;;;6.60;1.63;;;7.40;99.90;;;;;;5035196;28;20022;-73
2023/10/24 01:14:30;;;;;;;7.85;1.70;;;7.40;99.90;;;;;;5018638;28;20548;-73
2023/10/24 01:16:56;;;;;;;7.38;2.25;;;7.40;99.90;;;;;;5036627;28;20037;-74
2023/10/24 01:19:21;;;;;;;6.78;1.70;;;7.40;99.90;;;;;;5036227;28;20413;-74
2023/10/24 01:21:47;;;;;;;6.70;1.70;;;7.40;99.90;;;;;;5036491;28;20029;-74
2023/10/24 01:24:14;;;;;;;6.43;2.17;;;7.40;99.90;;;;;;5036310;28;20037;-74
2023/10/24 01:26:41;;;;;;;9.90;2.63;;;7.40;99.90;;;;;;5036250;28;20559;-74
2023/10/24 01:29:08;;;;;;;6.80;1.90;;;7.40;99.90;;;;;;5034760;28;20067;-74
2023/10/24 01:31:34;;;;;;;7.07;1.70;;;7.40;99.90;;;;;;5036346;28;20100;-74
2023/10/24 01:34:00;;;;;;;8.57;1.70;;;7.30;99.90;;;;;;5036270;28;20490;-74
2023/10/24 01:36:25;;;;;;;5.13;1.75;;;7.30;99.90;;;;;;5036050;28;20045;-74
2023/10/24 01:38:51;;;;;;;7.03;1.65;;;7.40;99.90;;;;;;5035921;28;20033;-74
2023/10/24 01:41:17;;;;;;;9.02;1.85;;;7.40;99.90;;;;;;5035835;28;20060;-74
2023/10/24 01:43:43;;;;;;;8.65;1.77;;;7.30;99.90;;;;;;5036068;28;20084;-74
2023/10/24 01:46:08;;;;;;;5.28;1.80;;;7.40;99.90;;;;;;5034545;28;20026;-74
2023/10/24 01:48:34;;;;;;;7.63;1.88;;;7.40;99.90;;;;;;5035974;28;20437;-74
2023/10/24 01:51:00;;;;;;;7.65;1.73;;;7.40;99.90;;;;;;5035569;28;20021;-74
2023/10/24 01:53:26;;;;;;;5.80;1.58;;;7.30;99.90;;;;;;5035918;28;20029;-74
2023/10/24 01:55:51;;;;;;;3.50;1.50;;;7.30;99.90;;;;;;5035657;28;20033;-74
2023/10/24 01:58:17;;;;;;;6.95;1.80;;;7.30;99.90;;;;;;5035434;28;20038;-74
2023/10/24 02:00:43;;;;;;;10.07;1.75;;;7.30;99.90;;;;;;5034926;28;20034;-74
2023/10/24 02:03:08;;;;;;;6.35;1.95;;;7.20;99.90;;;;;;5036047;28;20061;-74
2023/10/24 02:05:35;;;;;;;7.35;2.17;;;7.10;99.90;;;;;;5035317;28;20021;-74
2023/10/24 02:08:01;;;;;;;6.53;1.90;;;7.00;99.90;;;;;;5035369;28;20155;-73
2023/10/24 02:10:27;;;;;;;17.05;4.32;;;7.00;99.90;;;;;;5035480;28;20100;-74
2023/10/24 02:12:53;;;;;;;23.08;8.35;;;7.00;99.90;;;;;;5034176;28;20104;-73
2023/10/24 02:15:18;;;;;;;17.08;5.57;;;6.90;99.90;;;;;;5035308;28;20545;-74
2023/10/24 02:17:44;;;;;;;15.75;3.83;;;6.90;99.90;;;;;;5035204;28;20540;-74
2023/10/24 02:20:13;;;;;;;10.38;2.08;;;6.90;99.90;;;;;;5035380;28;20057;-74
2023/10/24 02:22:39;;;;;;;11.48;1.80;;;6.90;99.90;;;;;;5033813;28;20053;-73
2023/10/24 02:25:06;;;;;;;6.32;2.10;;;6.90;99.90;;;;;;5034969;28;20478;-74
2023/10/24 02:27:34;;;;;;;9.48;1.73;;;6.90;99.90;;;;;;5035311;28;20021;-74
2023/10/24 02:30:01;;;;;;;8.35;2.38;;;6.90;99.90;;;;;;5017518;28;20397;-74
2023/10/24 02:32:26;;;;;;;5.20;2.03;;;6.80;99.90;;;;;;5034943;28;20116;-74
2023/10/24 02:34:52;;;;;;;7.25;1.90;;;6.80;99.90;;;;;;5034888;28;20111;-74
2023/10/24 02:37:18;;;;;;;8.95;1.77;;;6.90;99.90;;;;;;5033665;28;20053;-74
2023/10/24 02:39:44;;;;;;;7.10;1.80;;;6.90;99.90;;;;;;5035037;28;20034;-74
2023/10/24 02:42:09;;;;;;;9.65;2.28;;;6.90;99.90;;;;;;5034726;28;20025;-74
2023/10/24 02:44:38;;;;;;;15.05;3.00;;;6.80;99.90;;;;;;5034791;28;20025;-73
2023/10/24 02:47:04;;;;;;;13.40;2.78;;;6.80;99.90;;;;;;5033383;28;20073;-75
2023/10/24 02:49:32;;;;;;;9.10;3.45;;;6.70;99.90;;;;;;5034551;28;20033;-73
2023/10/24 02:51:57;;;;;;;8.85;2.88;;;6.70;99.90;;;;;;5033806;28;20025;-73
2023/10/24 02:54:23;;;;;;;10.20;3.00;;;6.70;99.90;;;;;;5036192;28;20095;-74
2023/10/24 02:56:50;;;;;;;8.02;2.55;;;6.70;99.90;;;;;;5035617;28;20025;-74
2023/10/24 02:59:16;;;;;;;9.88;2.47;;;6.70;99.90;;;;;;5035790;28;20044;-73
2023/10/24 03:01:42;;;;;;;4.95;2.15;;;6.70;99.90;;;;;;5035662;28;20033;-74
2023/10/24 03:04:08;;;;;;;5.05;1.80;;;6.70;99.90;;;;;;5037614;28;20502;-73
2023/10/24 03:06:49;;;;;;;10.20;2.33;;;6.80;99.90;;;;;;5003194;28;20104;-74
2023/10/24 03:09:15;;;;;;;12.15;3.13;;;6.80;99.90;;;;;;5035502;28;20021;-73
2023/10/24 03:11:41;;;;;;;8.68;2.90;;;6.70;99.90;;;;;;5035433;28;20040;-74
2023/10/24 03:14:06;;;;;;;9.18;3.25;;;6.70;99.90;;;;;;5036539;28;20029;-74
2023/10/24 03:16:34;;;;;;;13.13;2.65;;;6.70;99.90;;;;;;5035192;28;20026;-74
2023/10/24 03:18:59;;;;;;;7.82;3.13;;;6.60;99.90;;;;;;5035003;28;20103;-74
2023/10/24 03:21:25;;;;;;;7.90;2.88;;;6.60;99.90;;;;;;5035023;28;20466;-74
2023/10/24 03:23:51;;;;;;;8.63;2.70;;;6.60;99.90;;;;;;5032640;28;20116;-73
2023/10/24 03:26:18;;;;;;;14.23;3.00;;;6.50;99.90;;;;;;5034696;28;20026;-74
2023/10/24 03:28:45;;;;;;;6.78;2.65;;;6.60;99.90;;;;;;5034498;28;20018;-73
2023/10/24 03:31:10;;;;;;;11.88;2.63;;;6.60;99.90;;;;;;5033795;28;20052;-73
2023/10/24 03:33:36;;;;;;;6.55;2.28;;;6.60;99.90;;;;;;5033760;28;20053;-73
2023/10/24 03:36:02;;;;;;;7.00;2.00;;;6.70;99.90;;;;;;5032533;28;20029;-73
2023/10/24 03:38:28;;;;;;;8.20;1.83;;;6.70;99.90;;;;;;5032532;28;20477;-73
2023/10/24 03:40:54;;;;;;;8.45;2.10;;;6.70;99.90;;;;;;5033596;28;20474;-73
2023/10/24 03:43:20;;;;;;;8.50;2.47;;;6.70;99.90;;;;;;5033929;28;20543;-73
2023/10/24 03:45:46;;;;;;;7.28;1.83;;;6.80;99.90;;;;;;5033640;28;20088;-73
2023/10/24 03:48:15;;;;;;;6.80;2.08;;;6.80;99.90;;;;;;5032442;28;20473;-73
2023/10/24 03:50:41;;;;;;;10.80;2.00;;;6.80;99.90;;;;;;5032342;28;20490;-73
2023/10/24 03:53:07;;;;;;;7.03;1.58;;;6.80;99.90;;;;;;5033988;28;20041;-73
2023/10/24 03:55:33;;;;;;;8.00;1.90;;;6.80;99.90;;;;;;5034187;28;20030;-73
2023/10/24 03:58:00;;;;;;;6.13;1.75;;;6.80;99.90;;;;;;5032341;28;20040;-73
2023/10/24 04:00:26;;;;;;;10.25;2.00;;;6.80;99.90;;;;;;5032396;28;20037;-73
2023/10/24 04:02:55;;;;;;;12.23;2.05;;;6.80;99.90;;;;;;5033411;28;20032;-73
2023/10/24 04:05:22;;;;;;;6.57;2.05;;;6.80;99.90;;;;;;5033343;28;20557;-73
2023/10/24 04:07:48;;;;;;;8.48;1.92;;;6.80;99.90;;;;;;5033848;28;20021;-73
2023/10/24 04:10:15;;;;;;;5.43;1.63;;;6.80;99.90;;;;;;5033366;28;20093;-73
2023/10/24 04:12:41;;;;;;;6.38;1.83;;;6.80;99.90;;;;;;5034662;28;20120;-73
2023/10/24 04:15:08;;;;;;;9.43;1.92;;;6.80;99.90;;;;;;5033287;28;20064;-73
2023/10/24 04:17:34;;;;;;;5.32;1.95;;;6.90;99.90;;;;;;5032542;28;20080;-73
2023/10/24 04:20:00;;;;;;;10.57;2.70;;;6.80;99.90;;;;;;5033433;28;20029;-73
2023/10/24 04:22:26;;;;;;;10.15;2.40;;;6.80;99.90;;;;;;5033964;28;20532;-73
2023/10/24 04:24:51;;;;;;;7.63;2.35;;;6.80;99.90;;;;;;5037320;28;20529;-73
2023/10/24 04:27:17;;;;;;;10.43;2.60;;;6.80;99.90;;;;;;5037265;28;20393;-73
2023/10/24 04:29:44;;;;;;;8.60;1.90;;;6.80;99.90;;;;;;5037201;28;20025;-73
2023/10/24 04:32:10;;;;;;;7.70;2.15;;;6.80;99.90;;;;;;5037450;28;20036;-73
2023/10/24 04:34:35;;;;;;;9.40;2.47;;;6.80;99.90;;;;;;5037181;28;20021;-73
2023/10/24 04:37:01;;;;;;;8.65;2.92;;;6.80;99.90;;;;;;5036490;28;20508;-73
2023/10/24 04:39:29;;;;;;;6.40;1.92;;;6.80;99.90;;;;;;5036154;28;20029;-72
2023/10/24 04:41:54;;;;;;;7.95;2.65;;;6.80;99.90;;;;;;5037691;28;20481;-72
2023/10/24 04:44:20;;;;;;;9.57;2.30;;;6.90;99.90;;;;;;5037211;28;20056;-73
2023/10/24 04:46:46;;;;;;;8.32;2.28;;;6.90;99.90;;;;;;5037291;28;20409;-73
2023/10/24 04:49:12;;;;;;;7.82;2.92;;;6.90;99.90;;;;;;5036501;28;20041;-73
2023/10/24 04:51:38;;;;;;;12.27;3.75;;;6.90;99.90;;;;;;5017228;28;20029;-73
2023/10/24 04:54:04;;;;;;;10.77;3.58;;;7.00;99.90;;;;;;5017980;28;20387;-73
2023/10/24 04:56:29;;;;;;;12.02;3.25;;;7.00;99.90;;;;;;5019475;28;20363;-73
2023/10/24 04:58:56;;;;;;;10.05;4.13;;;7.00;99.90;;;;;;5036726;28;20417;-72
2023/10/24 05:01:22;;;;;;;11.70;4.03;;;7.00;99.90;;;;;;5035313;28;20052;-73
2023/10/24 05:03:48;;;;;;;18.52;6.75;;;6.90;99.90;;;;;;5036503;28;20401;-74
2023/10/24 05:06:13;;;;;;;21.58;11.05;;;7.00;99.90;;;;;;5036482;28;20026;-73
2023/10/24 05:08:39;;;;;;;12.98;5.03;;;6.90;99.90;;;;;;5036540;28;20108;-73
2023/10/24 05:11:05;;;;;;;11.05;4.93;;;6.90;99.90;;;;;;5036443;28;20481;-73
2023/10/24 05:13:31;;;;;;;9.73;5.15;;;6.90;99.90;;;;;;5036493;28;20033;-73
2023/10/24 05:15:57;;;;;;;11.93;5.55;;;6.90;99.90;;;;;;5036397;28;20553;-73
2023/10/24 05:18:23;;;;;;;12.02;4.97;;;6.90;99.90;;;;;;5035224;28;20044;-73
2023/10/24 05:20:48;;;;;;;11.23;4.40;;;6.90;99.90;;;;;;5035340;28;20051;-73
2023/10/24 05:23:14;;;;;;;15.82;4.95;;;6.90;99.90;;;;;;5036397;28;20478;-73
2023/10/24 05:25:41;;;;;;;12.98;5.20;;;7.00;99.90;;;;;;5036819;28;20381;-73
2023/10/24 05:28:07;;;;;;;18.02;7.78;;;6.90;99.90;;;;;;5034889;28;20035;-74
2023/10/24 05:30:33;;;;;;;14.32;7.10;;;6.90;99.90;;;;;;5035180;28;20424;-73
2023/10/24 05:32:59;;;;;;;20.98;9.88;;;6.90;99.90;;;;;;5034950;28;20025;-73
2023/10/24 05:35:25;;;;;;;25.15;11.60;;;6.90;99.90;;;;;;5017426;28;20033;-73
2023/10/24 05:37:50;;;;;;;20.67;9.98;;;6.90;99.90;;;;;;5034769;28;20175;-73
2023/10/24 05:40:16;;;;;;;15.82;6.57;;;7.00;99.90;;;;;;5036170;28;20030;-74
2023/10/24 05:42:42;;;;;;;12.85;5.65;;;7.00;99.90;;;;;;5036000;28;20026;-73
2023/10/24 05:45:09;;;;;;;22.33;7.47;;;7.00;99.90;;;;;;5034555;28;20041;-74
2023/10/24 05:47:34;;;;;;;23.65;11.82;;;7.00;99.90;;;;;;5035967;28;20144;-74
2023/10/24 05:50:00;;;;;;;21.02;10.73;;;7.00;99.90;;;;;;5035820;28;20049;-74
2023/10/24 05:52:25;;;;;;;20.45;9.57;;;7.00;99.90;;;;;;5035801;28;20100;-74
2023/10/24 05:54:52;;;;;;;17.98;8.18;;;7.00;99.90;;;;;;5035715;28;20037;-74
2023/10/24 05:57:18;;;;;;;13.88;6.20;;;7.00;99.90;;;;;;5035896;28;20029;-74
2023/10/24 05:59:44;;;;;;;14.38;5.30;;;7.10;99.90;;;;;;5034401;28;20502;-74
2023/10/24 06:02:09;;;;;;;12.00;4.60;;;7.10;99.90;;;;;;5035555;28;20088;-74
2023/10/24 06:04:35;;;;;;;9.02;3.70;;;7.10;99.90;;;;;;5035751;28;20038;-73
2023/10/24 06:07:02;;;;;;;11.95;3.78;;;7.20;99.90;;;;;;5035527;28;20041;-73
2023/10/24 06:09:27;;;;;;;11.40;3.50;;;7.20;99.90;;;;;;5035528;28;20470;-74
2023/10/24 06:11:53;;;;;;;8.45;3.28;;;7.20;99.90;;;;;;5035694;28;20108;-74
2023/10/24 06:14:19;;;;;;;6.65;3.53;;;7.20;99.90;;;;;;5035425;28;20037;-73
2023/10/24 06:16:45;;;;;;;24.25;5.82;;;7.20;99.90;;;;;;5034412;28;20033;-73
2023/10/24 06:19:11;;;;;;;21.05;5.63;;;7.20;99.90;;;;;;5020134;28;20056;-73
2023/10/24 06:21:36;;;;;;;13.05;5.95;;;7.30;99.90;;;;;;5037345;28;20032;-73
2023/10/24 06:24:02;;;;;;;11.25;4.78;;;7.30;99.90;;;;;;5038632;28;20392;-73
2023/10/24 06:26:28;;;;;;;14.52;5.53;;;7.30;99.90;;;;;;5038639;28;20473;-73
2023/10/24 06:28:54;;;;;;;16.02;6.32;;;7.30;99.90;;;;;;5036898;28;20083;-73
2023/10/24 06:31:20;;;;;;;17.25;6.22;;;7.30;99.90;;;;;;5038451;28;20037;-73
2023/10/24 06:33:46;;;;;;;13.45;6.15;;;7.40;99.90;;;;;;5037741;28;20029;-73
2023/10/24 06:36:11;;;;;;;13.65;6.05;;;7.40;99.90;;;;;;5035179;28;20022;-73
2023/10/24 06:38:37;;;;;;;17.25;7.47;;;7.40;99.90;;;;;;5033128;28;20045;-73
2023/10/24 06:41:06;;;;;;;17.05;6.80;;;7.40;99.90;;;;;;5033821;28;20030;-73
2023/10/24 06:43:32;;;;;;;15.07;5.78;;;7.40;99.90;;;;;;5034987;28;20076;-73
2023/10/24 06:45:58;;;;;;;15.38;6.00;;;7.40;99.90;;;;;;5034951;28;20065;-73
2023/10/24 06:48:23;;;;;;;14.85;5.03;;;7.40;99.90;;;;;;5033818;28;20034;-74
2023/10/24 06:50:49;;;;;;;12.00;4.78;;;7.40;99.90;;;;;;5033437;28;20029;-73
2023/10/24 06:53:15;;;;;;;9.60;3.78;;;7.40;99.90;;;;;;5034764;28;20029;-73
2023/10/24 06:55:40;;;;;;;8.73;3.92;;;7.50;99.90;;;;;;5033771;28;20167;-74
2023/10/24 06:58:06;;;;;;;10.40;4.43;;;7.50;99.90;;;;;;5034500;28;20037;-74
2023/10/24 07:00:32;;;;;;;13.68;5.30;;;7.50;99.90;;;;;;5034830;28;20088;-74
2023/10/24 07:02:58;;;;;;;10.75;4.80;;;7.50;99.90;;;;;;5034763;28;20030;-74
2023/10/24 07:05:24;;;;;;;8.27;4.20;;;7.50;99.90;;;;;;5034634;28;20028;-74
2023/10/24 07:07:50;;;;;;;10.35;4.20;;;7.50;99.90;;;;;;5034763;28;20025;-74
2023/10/24 07:10:16;;;;;;;10.32;4.95;;;7.50;99.90;;;;;;5034694;28;20036;-73
2023/10/24 07:12:42;;;;;;;12.45;4.43;;;7.60;99.90;;;;;;5034387;28;20049;-73
2023/10/24 07:15:08;;;;;;;9.30;3.53;;;7.60;99.90;;;;;;5034926;28;20121;-74
2023/10/24 07:17:35;;;;;;;10.88;3.20;;;7.60;99.90;;;;;;5033305;28;20057;-73
2023/10/24 07:20:01;;;;;;;18.65;4.45;;;7.70;99.90;;;;;;5033488;28;20065;-73
2023/10/24 07:22:28;;;;;;;9.77;3.30;;;7.70;99.90;;;;;;5034197;28;20064;-74
2023/10/24 07:24:54;;;;;;;10.70;3.40;;;7.70;99.90;;;;;;5033873;28;20034;-73
2023/10/24 07:27:20;;;;;;;13.45;3.72;;;7.70;99.90;;;;;;5034218;28;20067;-74
2023/10/24 07:29:46;;;;;;;10.88;4.97;;;7.80;99.90;;;;;;5034034;28;20104;-73
2023/10/24 07:32:14;;;;;;;10.77;5.13;;;7.80;99.90;;;;;;5034162;28;20064;-73
2023/10/24 07:34:41;;;;;;;10.38;4.50;;;7.80;99.90;;;;;;5033891;28;20112;-74
2023/10/24 07:37:07;;;;;;;9.95;4.20;;;7.80;99.90;;;;;;5033883;28;20037;-73
2023/10/24 07:39:34;;;;;;;13.02;5.07;;;7.80;99.90;;;;;;5033963;28;20036;-73
2023/10/24 07:42:00;;;;;;;13.10;4.15;;;7.80;99.90;;;;;;5034445;28;20030;-74
2023/10/24 07:44:26;;;;;;;10.88;4.25;;;7.90;99.90;;;;;;5033812;28;20134;-73
2023/10/24 07:46:52;;;;;;;10.68;4.00;;;7.90;99.90;;;;;;5033915;28;20061;-74
2023/10/24 07:49:17;;;;;;;15.70;5.05;;;7.90;99.90;;;;;;5016137;28;20509;-74
2023/10/24 07:51:44;;;;;;;11.80;3.92;;;8.00;99.90;;;;;;5034119;28;20509;-73
2023/10/24 07:54:11;;;;;;;9.15;4.13;;;8.00;99.90;;;;;;5033937;28;20028;-74
2023/10/24 07:56:40;;;;;;;16.45;4.55;;;8.00;99.90;;;;;;5033379;28;20029;-74
2023/10/24 07:59:07;;;;;;;13.00;4.43;;;8.00;99.90;;;;;;5031889;28;20037;-74
2023/10/24 08:01:33;;;;;;;18.08;4.97;;;8.10;99.90;;;;;;5033825;28;20033;-74
2023/10/24 08:03:59;;;;;;;11.05;3.85;;;8.10;99.90;;;;;;5033291;28;20402;-74
2023/10/24 08:06:25;;;;;;;6.85;3.35;;;8.10;99.90;;;;;;5033498;28;20029;-73
2023/10/24 08:08:51;;;;;;;16.05;4.63;;;8.20;99.90;;;;;;5033456;28;20513;-73
2023/10/24 08:11:17;;;;;;;12.98;4.13;;;8.20;99.90;;;;;;5033352;28;20037;-73
2023/10/24 08:13:42;;;;;;;17.42;4.63;;;8.30;99.90;;;;;;5033558;28;20104;-73
2023/10/24 08:16:08;;;;;;;8.80;4.07;;;8.30;99.90;;;;;;5033525;28;20568;-73
2023/10/24 08:18:37;;;;;;;12.38;4.10;;;8.30;99.90;;;;;;5033891;28;20497;-74
2023/10/24 08:21:03;;;;;;;14.40;4.53;;;8.30;99.90;;;;;;5032416;28;20037;-73
2023/10/24 08:23:29;;;;;;;16.10;5.30;;;8.30;99.90;;;;;;5033429;28;20048;-73
2023/10/24 08:25:56;;;;;;;16.80;5.05;;;8.30;99.90;;;;;;5032123;28;20412;-73
2023/10/24 08:28:22;;;;;;;20.20;5.70;;;8.40;99.90;;;;;;5033458;28;20025;-73
2023/10/24 08:30:48;;;;;;;16.15;5.85;;;8.40;99.90;;;;;;5032151;28;20021;-73
2023/10/24 08:33:15;;;;;;;14.20;5.03;;;8.40;99.90;;;;;;5033496;28;20574;-73
2023/10/24 08:35:41;;;;;;;12.40;4.97;;;8.50;99.90;;;;;;5033317;28;20033;-73
2023/10/24 08:38:06;;;;;;;17.33;6.25;;;8.50;99.90;;;;;;5033262;28;20375;-73
2023/10/24 08:40:32;;;;;;;19.80;7.45;;;8.50;99.90;;;;;;5033251;28;20487;-74
2023/10/24 08:42:58;;;;;;;26.65;9.63;;;8.60;99.90;;;;;;5033104;28;20031;-74
2023/10/24 08:45:26;;;;;;;21.48;8.27;;;8.60;99.90;;;;;;5031743;28;20037;-73
2023/10/24 08:47:53;;;;;;;20.13;7.30;;;8.60;99.90;;;;;;5033165;28;20068;-73
2023/10/24 08:50:19;;;;;;;17.10;6.85;;;8.70;99.90;;;;;;5033018;28;20148;-73
2023/10/24 08:52:46;;;;;;;17.80;6.97;;;8.70;99.90;;;;;;5033373;28;20478;-74
2023/10/24 08:55:12;;;;;;;16.88;6.63;;;8.70;99.90;;;;;;5033066;28;20104;-73
2023/10/24 08:57:42;;;;;;;16.75;6.90;;;8.60;99.90;;;;;;5033091;28;20121;-74
2023/10/24 09:00:13;;;;;;;15.23;6.82;;;8.70;99.90;;;;;;5032963;28;20367;-73
2023/10/24 09:02:41;;;;;;;14.43;7.47;;;8.70;99.90;;;;;;5033025;28;20033;-73
2023/10/24 09:05:09;;;;;;;11.63;6.93;;;8.70;99.90;;;;;;5032908;28;20079;-73
2023/10/24 09:07:36;;;;;;;14.38;6.85;;;8.70;99.90;;;;;;5032889;28;20389;-73
2023/10/24 09:10:02;;;;;;;17.65;7.05;;;8.70;99.90;;;;;;5033235;28;20117;-73
2023/10/24 09:12:32;;;;;;;14.30;6.93;;;8.70;99.90;;;;;;5036538;28;20025;-73
2023/10/24 09:14:59;;;;;;;15.35;7.15;;;8.70;99.90;;;;;;5037133;28;20029;-73
2023/10/24 09:17:25;;;;;;;11.88;5.10;;;8.80;99.90;;;;;;5036606;28;20041;-73
2023/10/24 09:19:57;;;;;;;14.82;6.55;;;8.80;99.90;;;;;;5034958;28;20060;-73
2023/10/24 09:22:27;;;;;;;11.82;5.32;;;8.80;99.90;;;;;;5036707;28;20025;-73
2023/10/24 09:24:53;;;;;;;13.23;6.72;;;8.80;99.90;;;;;;5036379;28;20021;-73
2023/10/24 09:27:23;;;;;;;15.70;6.45;;;8.80;99.90;;;;;;5035135;28;20381;-73
2023/10/24 09:29:50;;;;;;;17.95;6.75;;;8.90;99.90;;;;;;5037419;28;20028;-73
2023/10/24 09:32:16;;;;;;;16.38;7.63;;;8.90;99.90;;;;;;5039493;28;20486;-73
2023/10/24 09:34:46;;;;;;;15.88;7.13;;;8.90;99.90;;;;;;5039473;28;20056;-73
2023/10/24 09:37:13;;;;;;;17.30;6.38;;;9.00;99.90;;;;;;5039505;28;20030;-73
2023/10/24 09:39:56;;;;;;;17.15;6.00;;;9.10;99.90;;;;;;5038058;28;20040;-73
2023/10/24 09:42:26;;;;;;;12.57;5.18;;;9.10;99.90;;;;;;5039149;28;20025;-73
2023/10/24 09:44:55;;;;;;;14.20;5.38;;;9.20;99.90;;;;;;5039377;28;20060;-73
2023/10/24 09:47:22;;;;;;;13.68;5.65;;;9.20;99.90;;;;;;5039360;28;20033;-73
2023/10/24 09:49:52;;;;;;;18.50;6.40;;;9.20;99.90;;;;;;5039004;28;20080;-73
2023/10/24 09:52:20;;;;;;;18.40;5.95;;;9.30;99.90;;;;;;5039277;28;20022;-73
2023/10/24 09:54:50;;;;;;;14.90;5.85;;;9.30;99.90;;;;;;5038941;28;20112;-73
2023/10/24 09:57:21;;;;;;;14.15;6.93;;;9.30;99.90;;;;;;5037545;28;20029;-73
2023/10/24 09:59:47;;;;;;;17.20;6.93;;;9.40;99.90;;;;;;5038244;28;20037;-73
2023/10/24 10:02:19;;;;;;;25.33;8.75;;;9.40;99.90;;;;;;5038994;28;20084;-72
2023/10/24 10:04:47;;;;;;;24.17;8.15;;;9.50;99.90;;;;;;5039281;28;20167;-73
2023/10/24 10:07:15;;;;;;;18.70;8.07;;;9.50;99.90;;;;;;5038648;28;20037;-73
2023/10/24 10:09:46;;;;;;;19.30;8.45;;;9.60;99.90;;;;;;5037241;28;20026;-73
2023/10/24 10:12:13;;;;;;;25.58;8.95;;;9.60;99.90;;;;;;5039038;28;20048;-73
2023/10/24 10:15:02;;;;;;;21.65;7.10;;;9.60;99.90;;;;;;5038794;28;20527;-72
2023/10/24 10:18:06;;;;;;;16.05;7.32;;;9.60;99.90;;;;;;5037631;28;20516;-73
2023/10/24 10:21:10;;;;;;;13.05;6.38;;;9.60;99.90;;;;;;5036763;28;20028;-73
2023/10/24 10:23:39;;;;;;;14.77;6.07;;;9.70;99.90;;;;;;5036547;28;20120;-73
2023/10/24 10:26:06;;;;;;;20.33;6.10;;;9.70;99.90;;;;;;5038211;28;20025;-73
2023/10/24 10:28:52;;;;;;;25.70;6.32;;;9.70;99.90;;;;;;5038288;28;20024;-73
2023/10/24 10:31:40;;;;;;;20.20;5.60;;;9.70;99.90;;;;;;5038152;28;20021;-73
2023/10/24 10:34:06;;;;;;;17.73;5.45;;;9.80;99.90;;;;;;5037552;28;20021;-73
2023/10/24 10:36:32;;;;;;;12.55;5.30;;;9.80;99.90;;;;;;5037738;28;20037;-73
2023/10/24 10:39:05;;;;;;;15.52;5.45;;;9.80;99.90;;;;;;5037870;28;20037;-73
2023/10/24 10:41:32;;;;;;;20.38;6.30;;;9.80;99.90;;;;;;5036839;28;20105;-73
2023/10/24 10:44:02;;;;;;;19.98;6.90;;;9.80;99.90;;;;;;5038296;28;20466;-73
2023/10/24 10:46:32;;;;;;;25.38;8.20;;;9.80;99.90;;;;;;5037672;28;20049;-73
2023/10/24 10:48:59;;;;;;;22.73;9.38;;;9.80;99.90;;;;;;5037087;28;20048;-73
2023/10/24 10:51:33;;;;;;;22.70;9.18;;;9.90;99.90;;;;;;5037673;28;20029;-72
2023/10/24 10:54:24;;;;;;;26.92;8.68;;;9.90;99.90;;;;;;5037039;28;20466;-73
2023/10/24 10:56:49;;;;;;;24.23;9.77;;;9.90;99.90;;;;;;5038003;28;20382;-72
2023/10/24 10:59:38;;;;;;;27.80;10.57;;;9.90;99.90;;;;;;5037653;28;20038;-73
2023/10/24 11:02:13;;;;;;;19.80;6.93;;;9.90;99.90;;;;;;5038713;28;20014;-73
2023/10/24 11:04:38;;;;;;;16.58;6.72;;;10.00;99.90;;;;;;5038559;28;20026;-73
2023/10/24 11:07:04;;;;;;;23.92;9.48;;;10.00;99.90;;;;;;5037360;28;20536;-73
2023/10/24 11:09:35;;;;;;;18.23;7.47;;;10.10;99.90;;;;;;5037746;28;20044;-73
2023/10/24 11:12:26;;;;;;;21.23;7.78;;;10.10;99.90;;;;;;5036340;28;20482;-73
2023/10/24 11:15:06;;;;;;;22.17;8.05;;;10.20;99.90;;;;;;5038327;28;20091;-73
2023/10/24 11:17:33;;;;;;;20.63;7.88;;;10.20;99.90;;;;;;5038074;28;20391;-73
2023/10/24 11:19:59;;;;;;;16.50;6.10;;;10.30;99.90;;;;;;5038346;28;20029;-73
2023/10/24 11:22:25;;;;;;;20.40;6.55;;;10.40;99.90;;;;;;5037169;28;20116;-72
2023/10/24 11:24:51;;;;;;;21.50;8.23;;;10.40;99.90;;;;;;5035799;28;20022;-72
2023/10/24 11:27:17;;;;;;;22.63;7.70;;;10.50;99.90;;;;;;5034487;28;20029;-73
2023/10/24 11:29:43;;;;;;;30.45;7.13;;;10.60;99.90;;;;;;5035569;28;20099;-73
2023/10/24 11:32:09;;;;;;;21.35;6.80;;;10.60;99.90;;;;;;5035209;28;20026;-73
2023/10/24 11:34:35;;;;;;;18.50;5.63;;;10.70;99.90;;;;;;5035281;28;20079;-72
2023/10/24 11:37:00;;;;;;;19.42;6.28;;;10.80;99.90;;;;;;5035646;28;20027;-73
2023/10/24 11:39:26;;;;;;;21.17;5.97;;;10.80;99.90;;;;;;5034553;28;20068;-73
2023/10/24 11:41:52;;;;;;;18.80;5.97;;;10.90;99.90;;;;;;5035599;28;20041;-73
2023/10/24 11:44:18;;;;;;;18.23;6.32;;;11.00;99.90;;;;;;5035806;28;20032;-73
2023/10/24 11:46:44;;;;;;;17.42;5.45;;;11.00;99.90;;;;;;5035846;28;20496;-73
2023/10/24 11:49:11;;;;;;;16.27;6.13;;;11.10;99.90;;;;;;5033938;28;20056;-73
2023/10/24 11:51:36;;;;;;;24.05;6.53;;;11.10;99.90;;;;;;5035699;28;20029;-73
2023/10/24 11:54:04;;;;;;;14.05;5.45;;;11.10;99.90;;;;;;5035302;28;20052;-73
2023/10/24 11:56:31;;;;;;;13.73;5.63;;;11.20;99.90;;;;;;5034039;28;20022;-73
2023/10/24 11:58:57;;;;;;;24.08;6.32;;;11.30;99.90;;;;;;5034953;28;20032;-73
2023/10/24 12:01:24;;;;;;;16.25;6.45;;;11.30;99.90;;;;;;5035070;28;20021;-73
2023/10/24 12:03:56;;;;;;;24.23;8.38;;;11.40;99.90;;;;;;5033763;28;20393;-73
2023/10/24 12:06:22;;;;;;;23.70;9.43;;;11.40;99.90;;;;;;5034578;28;20605;-73
2023/10/24 12:08:49;;;;;;;26.98;8.48;;;11.50;99.90;;;;;;5034207;28;20030;-73
2023/10/24 12:11:15;;;;;;;21.10;7.85;;;11.50;99.90;;;;;;5035198;28;20097;-72
2023/10/24 12:13:41;;;;;;;19.85;8.32;;;11.50;99.90;;;;;;5035028;28;20545;-72
2023/10/24 12:16:07;;;;;;;19.45;7.95;;;11.50;99.90;;;;;;5033943;28;20057;-74
2023/10/24 12:18:33;;;;;;;15.27;7.70;;;11.50;99.90;;;;;;5037597;28;20029;-73
2023/10/24 12:20:59;;;;;;;14.57;6.68;;;11.60;99.90;;;;;;5035497;28;20026;-73
2023/10/24 12:23:25;;;;;;;25.65;8.68;;;11.60;99.90;;;;;;5034983;28;20478;-73
2023/10/24 12:25:52;;;;;;;22.15;7.50;;;11.70;99.90;;;;;;5036016;28;20031;-73
2023/10/24 12:28:18;;;;;;;24.83;7.53;;;11.70;99.90;;;;;;5034540;28;20025;-73
2023/10/24 12:30:44;;;;;;;14.95;6.45;;;11.70;99.90;;;;;;5035341;28;20026;-73
2023/10/24 12:33:09;;;;;;;15.98;5.55;;;11.70;99.90;;;;;;5034546;28;20505;-73
2023/10/24 12:35:35;;;;;;;14.00;5.18;;;11.70;99.90;;;;;;5035782;28;20029;-73
2023/10/24 12:38:01;;;;;;;20.42;6.75;;;11.70;99.90;;;;;;5035031;28;20504;-74
2023/10/24 12:40:26;;;;;;;20.98;6.47;;;11.80;99.90;;;;;;5034532;28;20038;-73
2023/10/24 12:42:52;;;;;;;22.60;7.93;;;11.80;99.90;;;;;;5035065;28;20409;-73
2023/10/24 12:45:24;;;;;;;25.85;7.95;;;11.80;99.90;;;;;;5039822;28;20561;-74
2023/10/24 12:47:51;;;;;;;25.92;10.48;;;11.80;99.90;;;;;;5040325;28;20112;-74